Rio Dell, California
Current Conditions -  °F | °C
As of 5:15 PM on Saturday 20 Dec 2014 (Local Time) from KFOT Reporting Station
Overcast Overcast  
Wind Chill: 54°   Ceiling: 2300
Heat Index: 54°   Visibility: 1.7mi
Dew Point: 54°   Wind: 15mph
Humidity: 100%   Direction: 120°ESE
Pressure: 30.11"   Gusts: NA
Location:  40.5°N, 124.11°W
Report Text: KFOT 210115Z AUTO 12013KT 1 3/4SM SCT004 OVC023 12/12 A3011 RMK AO1 P0001
Loading
Personal Weather Stations






























Interactive Weather Map New forecast layout! Learn more

10-Day Weather Forecast

Advertisements
Track Severe Weather on mobile